createdAt,value
2019-02-27T00:01:49.626Z,132.43
2019-02-27T00:04:21.513Z,127.30
2019-02-27T00:06:52.359Z,121.90
2019-02-27T00:09:23.374Z,120.93
2019-02-27T00:11:53.948Z,120.53
2019-02-27T00:14:28.828Z,119.90
2019-02-27T00:16:58.991Z,126.63
2019-02-27T00:19:31.362Z,121.73
2019-02-27T00:22:06.778Z,121.97
2019-02-27T00:24:37.769Z,109.17
2019-02-27T00:27:08.467Z,141.50
2019-02-27T00:29:41.979Z,130.27
2019-02-27T00:32:12.930Z,119.10
2019-02-27T00:34:46.644Z,130.57
2019-02-27T00:37:18.943Z,122.67
2019-02-27T00:39:49.795Z,118.60
2019-02-27T00:42:22.856Z,137.27
2019-02-27T00:44:52.721Z,128.90
2019-02-27T00:47:23.328Z,124.03
2019-02-27T00:49:58.222Z,142.03
2019-02-27T00:52:30.419Z,127.27
2019-02-27T00:55:04.317Z,125.53
2019-02-27T00:57:36.438Z,121.20
2019-02-27T01:00:13.631Z,141.93
2019-02-27T01:02:44.408Z,123.33
2019-02-27T01:05:16.817Z,125.37
2019-02-27T01:07:47.460Z,132.13
2019-02-27T01:10:18.212Z,126.70
2019-02-27T01:12:48.831Z,131.90
2019-02-27T01:15:19.600Z,125.63
2019-02-27T01:17:50.195Z,117.17
2019-02-27T01:20:21.968Z,115.13
2019-02-27T01:22:56.659Z,112.33
2019-02-27T01:25:27.298Z,117.00
2019-02-27T01:27:58.081Z,109.13
2019-02-27T01:30:28.681Z,103.27
2019-02-27T01:33:03.965Z,103.87
2019-02-27T01:35:32.281Z,98.83
2019-02-27T01:38:05.258Z,105.13
2019-02-27T01:40:35.354Z,104.80
2019-02-27T01:43:06.506Z,133.07
2019-02-27T01:45:37.269Z,112.87
2019-02-27T01:48:09.905Z,106.20
2019-02-27T01:50:41.895Z,114.10
2019-02-27T01:53:12.545Z,112.07
2019-02-27T01:55:46.601Z,102.93
2019-02-27T01:58:17.317Z,106.00
2019-02-27T02:00:47.942Z,112.70
2019-02-27T02:03:18.777Z,105.67
2019-02-27T02:05:49.811Z,101.03
2019-02-27T02:08:20.982Z,107.10
2019-02-27T02:10:54.040Z,106.97
2019-02-27T02:13:32.506Z,103.23
2019-02-27T02:17:01.332Z,102.53
2019-02-27T02:20:19.573Z,132.00
2019-02-27T02:23:22.587Z,134.53
2019-02-27T02:26:13.332Z,133.13
2019-02-27T02:29:30.457Z,152.17
2019-02-27T02:32:37.230Z,154.50
2019-02-27T02:35:21.879Z,143.17
2019-02-27T02:38:31.396Z,147.97
2019-02-27T02:41:38.045Z,163.93
2019-02-27T02:44:24.824Z,194.70
2019-02-27T02:47:19.747Z,670.73
2019-02-27T02:50:34.844Z,179.40
2019-02-27T02:53:50.932Z,174.17
2019-02-27T02:56:37.349Z,161.50
2019-02-27T02:59:41.223Z,160.03
2019-02-27T03:02:23.757Z,150.80
2019-02-27T03:05:14.496Z,142.07
2019-02-27T03:08:03.786Z,180.53
2019-02-27T03:11:18.131Z,145.17
2019-02-27T03:14:17.736Z,147.17
2019-02-27T03:17:32.352Z,134.60
2019-02-27T03:20:28.465Z,146.37
2019-02-27T03:23:26.217Z,267.90
2019-02-27T03:26:16.531Z,187.63
2019-02-27T03:29:06.007Z,197.93
2019-02-27T03:32:01.329Z,198.57
2019-02-27T03:35:00.667Z,189.17
2019-02-27T03:37:57.413Z,187.30
2019-02-27T03:41:06.139Z,241.47
2019-02-27T03:44:04.917Z,244.90
2019-02-27T03:46:54.096Z,221.37
2019-02-27T03:49:57.022Z,203.77
2019-02-27T03:52:58.856Z,187.93
2019-02-27T03:56:12.298Z,186.33
2019-02-27T03:58:57.608Z,176.97
2019-02-27T04:01:40.699Z,171.77
2019-02-27T04:05:05.452Z,161.30
2019-02-27T04:07:56.173Z,180.53
2019-02-27T04:10:31.458Z,155.90
2019-02-27T04:13:04.048Z,160.83
2019-02-27T04:15:35.017Z,164.60
2019-02-27T04:18:04.297Z,167.70
2019-02-27T04:20:34.917Z,156.57
2019-02-27T04:23:11.187Z,164.20
2019-02-27T04:25:42.452Z,156.20
2019-02-27T04:28:13.254Z,158.77
2019-02-27T04:30:51.054Z,162.83
2019-02-27T04:33:23.440Z,169.83
2019-02-27T04:35:55.275Z,164.93
2019-02-27T04:38:27.514Z,164.40
2019-02-27T04:40:58.123Z,156.40
2019-02-27T04:43:32.191Z,154.87
2019-02-27T04:46:06.414Z,158.43
2019-02-27T04:48:37.255Z,150.50
2019-02-27T04:51:08.572Z,133.80
2019-02-27T04:53:40.759Z,128.73
2019-02-27T04:56:14.410Z,132.00
2019-02-27T04:58:45.374Z,125.83
2019-02-27T05:01:16.371Z,138.73
2019-02-27T05:03:46.969Z,148.37
2019-02-27T05:06:17.776Z,131.67
2019-02-27T05:08:48.709Z,136.83
2019-02-27T05:11:20.561Z,134.57
2019-02-27T05:13:54.326Z,139.53
2019-02-27T05:16:25.077Z,144.77
2019-02-27T05:18:55.603Z,142.80
2019-02-27T05:21:28.357Z,151.13
2019-02-27T05:24:00.646Z,161.60
2019-02-27T05:26:31.269Z,150.80
2019-02-27T05:29:01.825Z,157.53
2019-02-27T05:31:32.678Z,156.33
2019-02-27T05:34:03.294Z,146.20
2019-02-27T05:36:34.203Z,164.80
2019-02-27T05:39:08.357Z,158.83
2019-02-27T05:41:39.175Z,155.27
2019-02-27T05:44:11.626Z,149.43
2019-02-27T05:46:43.173Z,141.83
2019-02-27T05:49:15.320Z,141.70
2019-02-27T05:51:49.003Z,140.60
2019-02-27T05:54:19.546Z,152.50
2019-02-27T05:56:51.811Z,143.87
2019-02-27T05:59:22.424Z,152.83
2019-02-27T06:01:59.949Z,146.83
2019-02-27T06:04:30.441Z,143.70
2019-02-27T06:07:03.629Z,146.87
2019-02-27T06:09:34.092Z,145.30
2019-02-27T06:12:06.956Z,135.00
2019-02-27T06:14:37.019Z,136.03
2019-02-27T06:17:10.112Z,142.20
2019-02-27T06:19:42.820Z,138.07
2019-02-27T06:22:16.077Z,127.03
2019-02-27T06:24:49.374Z,132.97
2019-02-27T06:27:19.874Z,131.90
2019-02-27T06:29:50.440Z,131.00
2019-02-27T06:32:21.006Z,123.70
2019-02-27T06:34:51.907Z,123.10
2019-02-27T06:37:22.522Z,114.87
2019-02-27T06:39:54.192Z,123.90
2019-02-27T06:42:24.938Z,107.27
2019-02-27T06:44:55.520Z,95.50
2019-02-27T06:47:29.552Z,97.90
2019-02-27T06:50:10.543Z,83.27
2019-02-27T06:52:45.769Z,97.33
2019-02-27T06:55:16.308Z,96.10
2019-02-27T06:57:50.735Z,79.90
2019-02-27T07:00:24.261Z,83.83
2019-02-27T07:02:57.675Z,79.13
2019-02-27T07:05:32.451Z,74.07
2019-02-27T07:08:05.099Z,95.07
2019-02-27T07:10:38.909Z,99.37
2019-02-27T07:13:12.284Z,103.20
2019-02-27T07:15:50.858Z,88.03
2019-02-27T07:18:21.372Z,102.80
2019-02-27T07:20:55.649Z,145.20
2019-02-27T07:23:25.572Z,160.83
2019-02-27T07:25:59.189Z,186.13
2019-02-27T07:28:34.188Z,141.30
2019-02-27T07:31:08.648Z,131.23
2019-02-27T07:33:42.083Z,117.47
2019-02-27T07:36:20.716Z,98.50
2019-02-27T07:38:57.658Z,83.50
2019-02-27T07:41:37.704Z,87.20
2019-02-27T07:44:10.425Z,89.10
2019-02-27T07:46:43.774Z,86.57
2019-02-27T07:49:14.321Z,90.97
2019-02-27T07:51:46.067Z,80.03
2019-02-27T07:54:16.584Z,77.13
2019-02-27T07:56:47.108Z,83.63
2019-02-27T07:59:18.558Z,82.40
2019-02-27T08:01:54.089Z,81.40
2019-02-27T08:04:24.582Z,70.83
2019-02-27T08:06:55.203Z,73.93
2019-02-27T08:09:29.939Z,70.30
2019-02-27T08:11:59.717Z,65.43
2019-02-27T08:14:30.408Z,59.43
2019-02-27T08:17:03.244Z,67.17
2019-02-27T08:19:33.976Z,62.30
2019-02-27T08:22:04.723Z,66.37
2019-02-27T08:24:38.010Z,61.70
2019-02-27T08:27:09.683Z,57.63
2019-02-27T08:29:43.627Z,58.23
2019-02-27T08:32:14.725Z,58.87
2019-02-27T08:34:45.316Z,61.17
2019-02-27T08:37:20.290Z,62.57
2019-02-27T08:39:51.324Z,65.67
2019-02-27T08:42:24.046Z,72.83
2019-02-27T08:44:54.797Z,64.40
2019-02-27T08:47:29.355Z,61.17
2019-02-27T08:50:02.940Z,61.53
2019-02-27T08:52:33.819Z,64.13
2019-02-27T08:55:05.616Z,71.00
2019-02-27T08:57:36.867Z,67.93
2019-02-27T09:00:14.928Z,68.60
2019-02-27T09:02:46.076Z,65.33
2019-02-27T09:05:20.032Z,68.47
2019-02-27T09:07:52.156Z,62.77
2019-02-27T09:10:23.289Z,63.37
2019-02-27T09:13:04.944Z,66.43
2019-02-27T09:15:32.453Z,60.50
2019-02-27T09:18:06.275Z,62.35
2019-02-27T09:20:40.000Z,58.73
2019-02-27T09:23:14.338Z,63.75
2019-02-27T09:25:46.445Z,56.75
2019-02-27T09:28:17.294Z,60.50
2019-02-27T09:30:49.775Z,59.15
2019-02-27T09:33:21.023Z,55.65
2019-02-27T09:35:51.825Z,57.85
2019-02-27T09:38:25.816Z,56.95
2019-02-27T09:40:56.508Z,57.98
2019-02-27T09:43:32.226Z,54.18
2019-02-27T09:46:07.455Z,52.20
2019-02-27T09:48:42.256Z,53.65
2019-02-27T09:51:15.886Z,52.33
2019-02-27T09:53:49.913Z,52.30
2019-02-27T09:56:20.781Z,48.13
2019-02-27T09:58:54.273Z,52.38
2019-02-27T10:01:24.965Z,48.73
2019-02-27T10:03:57.646Z,52.95
2019-02-27T10:06:35.648Z,52.30
2019-02-27T10:09:09.010Z,49.20
2019-02-27T10:11:43.480Z,54.42
2019-02-27T10:14:17.084Z,51.85
2019-02-27T10:16:51.216Z,50.23
2019-02-27T10:19:26.997Z,48.13
2019-02-27T10:22:05.332Z,51.92
2019-02-27T10:24:37.668Z,48.52
2019-02-27T10:27:11.741Z,45.65
2019-02-27T10:29:53.692Z,43.90
2019-02-27T10:32:51.033Z,44.55
2019-02-27T10:35:46.247Z,44.38
2019-02-27T10:38:19.219Z,45.48
2019-02-27T10:41:27.591Z,48.68
2019-02-27T10:44:13.061Z,46.15
2019-02-27T10:47:23.431Z,45.90
2019-02-27T10:50:18.493Z,41.77
2019-02-27T10:53:00.012Z,41.50
2019-02-27T10:55:34.639Z,42.40
2019-02-27T10:58:16.099Z,39.63
2019-02-27T11:00:49.567Z,40.55
2019-02-27T11:04:24.975Z,43.68
2019-02-27T11:07:42.827Z,40.25
2019-02-27T11:10:42.288Z,39.53
2019-02-27T11:13:24.372Z,41.50
2019-02-27T11:17:02.152Z,38.25
2019-02-27T11:19:32.383Z,37.25
2019-02-27T11:22:18.282Z,38.65
2019-02-27T11:24:52.471Z,35.23
2019-02-27T11:27:38.952Z,34.80
2019-02-27T11:30:17.537Z,37.48
2019-02-27T11:32:57.787Z,35.38
2019-02-27T11:35:36.746Z,34.15
2019-02-27T11:38:09.312Z,35.95
2019-02-27T11:40:42.590Z,30.25
2019-02-27T11:43:14.649Z,31.45
2019-02-27T11:45:47.382Z,30.43
2019-02-27T11:48:42.381Z,29.65
2019-02-27T11:51:17.493Z,28.77
2019-02-27T11:53:54.683Z,29.23
2019-02-27T11:56:25.855Z,28.85
2019-02-27T11:59:00.037Z,30.37
2019-02-27T12:01:32.205Z,27.50
2019-02-27T12:04:05.312Z,27.07
2019-02-27T12:06:41.363Z,25.60
2019-02-27T12:09:12.262Z,23.98
2019-02-27T12:11:48.450Z,26.90
2019-02-27T12:14:24.846Z,23.52
2019-02-27T12:17:09.602Z,23.98
2019-02-27T12:19:49.026Z,24.63
2019-02-27T12:22:23.354Z,25.15
2019-02-27T12:24:54.701Z,26.80
2019-02-27T12:27:47.942Z,25.68
2019-02-27T12:30:02.842Z,23.27
2019-02-27T12:32:34.875Z,24.60
2019-02-27T12:35:12.636Z,20.65
2019-02-27T12:37:43.493Z,20.77
2019-02-27T12:40:25.252Z,20.90
2019-02-27T12:42:59.691Z,21.57
2019-02-27T12:45:33.840Z,22.62
2019-02-27T12:48:06.365Z,23.25
2019-02-27T12:50:37.418Z,26.00
2019-02-27T12:53:12.573Z,25.77
2019-02-27T12:55:43.392Z,29.05
2019-02-27T12:58:14.200Z,22.50
2019-02-27T13:00:46.756Z,26.25
2019-02-27T13:03:18.187Z,23.05
2019-02-27T13:05:55.519Z,26.05
2019-02-27T13:08:33.881Z,25.10
2019-02-27T13:11:05.291Z,23.22
2019-02-27T13:13:37.581Z,23.83
2019-02-27T13:16:14.283Z,24.00
2019-02-27T13:18:43.196Z,23.70
2019-02-27T13:21:20.698Z,24.92
2019-02-27T13:23:52.473Z,21.02
2019-02-27T13:26:25.142Z,21.33
2019-02-27T13:28:56.540Z,20.50
2019-02-27T13:31:35.319Z,27.22
2019-02-27T13:34:08.057Z,24.87
2019-02-27T13:36:39.855Z,30.12
2019-02-27T13:39:11.136Z,25.52
2019-02-27T13:41:45.691Z,24.05
2019-02-27T13:44:18.635Z,29.40
2019-02-27T13:46:58.216Z,24.32
2019-02-27T13:49:30.440Z,26.48
2019-02-27T13:52:01.063Z,21.23
2019-02-27T13:54:35.101Z,20.77
2019-02-27T13:57:06.983Z,21.95
2019-02-27T13:59:42.201Z,24.15
2019-02-27T14:02:16.129Z,20.43
2019-02-27T14:04:47.207Z,26.82
2019-02-27T14:07:18.241Z,25.08
2019-02-27T14:09:50.518Z,24.23
2019-02-27T14:12:24.472Z,23.70
2019-02-27T14:14:56.520Z,27.90
2019-02-27T14:17:31.401Z,26.65
2019-02-27T14:20:05.358Z,29.00
2019-02-27T14:22:40.657Z,26.87
2019-02-27T14:25:12.853Z,23.35
2019-02-27T14:27:47.547Z,23.30
2019-02-27T14:30:24.333Z,21.02
2019-02-27T14:33:00.613Z,21.80
2019-02-27T14:35:36.379Z,21.48
2019-02-27T14:38:05.815Z,20.80
2019-02-27T14:40:41.194Z,19.67
2019-02-27T14:43:12.393Z,20.08
2019-02-27T14:45:46.490Z,21.75
2019-02-27T14:48:21.622Z,20.70
2019-02-27T14:50:52.559Z,19.62
2019-02-27T14:53:25.881Z,28.50
2019-02-27T14:55:56.813Z,22.98
2019-02-27T14:58:27.832Z,23.45
2019-02-27T15:00:58.946Z,20.92
2019-02-27T15:03:30.198Z,22.77
2019-02-27T15:06:07.052Z,23.45
2019-02-27T15:08:44.326Z,23.52
2019-02-27T15:11:15.219Z,24.57
2019-02-27T15:13:47.780Z,23.62
2019-02-27T15:16:23.754Z,24.72
2019-02-27T15:19:02.491Z,27.27
2019-02-27T15:21:38.859Z,26.55
2019-02-27T15:24:10.507Z,25.15
2019-02-27T15:26:45.411Z,24.65
2019-02-27T15:29:16.437Z,23.80
2019-02-27T15:31:47.173Z,24.50
2019-02-27T15:34:18.025Z,26.15
2019-02-27T15:36:48.868Z,23.32
2019-02-27T15:39:21.134Z,25.40
2019-02-27T15:41:53.504Z,30.30
2019-02-27T15:44:38.675Z,26.17
2019-02-27T15:47:23.771Z,24.57
2019-02-27T15:50:00.157Z,22.93
2019-02-27T15:52:34.235Z,23.10
2019-02-27T15:55:19.582Z,21.55
2019-02-27T15:57:53.781Z,23.70
2019-02-27T16:00:27.733Z,24.60
2019-02-27T16:03:00.250Z,24.52
2019-02-27T16:05:33.027Z,41.65
2019-02-27T16:08:03.945Z,29.80
2019-02-27T16:10:35.221Z,28.20
2019-02-27T16:13:08.614Z,24.82
2019-02-27T16:15:39.469Z,26.42
2019-02-27T16:18:14.331Z,27.40
2019-02-27T16:20:59.428Z,32.90
2019-02-27T16:23:31.948Z,25.72
2019-02-27T16:26:12.510Z,25.75
2019-02-27T16:28:46.120Z,30.70
2019-02-27T16:31:16.292Z,37.10
2019-02-27T16:33:47.180Z,44.65
2019-02-27T16:36:18.136Z,37.10
2019-02-27T16:42:31.909Z,30.10
2019-02-27T16:45:02.729Z,27.87
2019-02-27T16:47:34.042Z,26.20
2019-02-27T16:50:05.099Z,26.80
2019-02-27T16:52:36.056Z,23.00
2019-02-27T16:55:08.727Z,31.07
2019-02-27T16:57:40.182Z,33.47
2019-02-27T17:00:12.636Z,29.93
2019-02-27T17:02:43.451Z,35.85
2019-02-27T17:05:14.521Z,24.87
2019-02-27T17:07:45.489Z,34.93
2019-02-27T17:10:18.876Z,37.47
2019-02-27T17:12:49.742Z,40.40
2019-02-27T17:19:03.766Z,46.03
2019-02-27T17:21:35.887Z,41.30
2019-02-27T17:24:06.561Z,39.93
2019-02-27T17:26:39.165Z,35.33
2019-02-27T17:29:10.117Z,30.03
2019-02-27T17:35:30.440Z,37.50
2019-02-27T17:38:01.195Z,33.40
2019-02-27T17:44:14.212Z,33.90
2019-02-27T17:46:44.832Z,37.73
2019-02-27T17:49:15.288Z,32.70
2019-02-27T17:51:45.724Z,35.17
2019-02-27T17:54:16.191Z,33.87
2019-02-27T18:00:42.675Z,33.43
2019-02-27T18:03:13.142Z,39.37
2019-02-27T18:05:43.581Z,35.33
2019-02-27T18:08:16.303Z,36.50
2019-02-27T18:10:47.372Z,34.90
2019-02-27T18:13:17.836Z,35.33
2019-02-27T18:15:48.321Z,40.53
2019-02-27T18:18:19.087Z,36.20
2019-02-27T18:20:49.589Z,32.27
2019-02-27T18:23:21.975Z,37.53
2019-02-27T18:25:52.227Z,43.03
2019-02-27T18:28:22.675Z,39.97
2019-02-27T18:30:53.852Z,41.37
2019-02-27T18:33:24.626Z,39.10
2019-02-27T18:35:56.691Z,33.90
2019-02-27T18:38:30.336Z,34.57
2019-02-27T18:41:08.299Z,39.23
2019-02-27T18:43:46.641Z,35.93
2019-02-27T18:46:24.697Z,45.57
2019-02-27T18:48:58.787Z,47.50
2019-02-27T18:51:38.647Z,44.83
2019-02-27T18:54:11.314Z,41.37
2019-02-27T18:56:41.540Z,38.13
2019-02-27T18:59:18.803Z,35.37
2019-02-27T19:05:31.434Z,31.53
2019-02-27T19:08:03.913Z,36.27
2019-02-27T19:10:41.755Z,32.47
2019-02-27T19:13:10.026Z,28.40
2019-02-27T19:15:46.530Z,33.20
2019-02-27T19:18:21.417Z,27.93
2019-02-27T19:20:59.298Z,26.27
2019-02-27T19:23:31.944Z,32.27
2019-02-27T19:26:09.373Z,30.57
2019-02-27T19:28:41.859Z,39.93
2019-02-27T19:31:16.755Z,30.53
2019-02-27T19:33:51.237Z,28.53
2019-02-27T19:36:24.815Z,31.20
2019-02-27T19:38:55.375Z,37.33
2019-02-27T19:41:38.578Z,39.30
2019-02-27T19:44:13.255Z,32.17
2019-02-27T19:46:47.505Z,29.10
2019-02-27T19:49:18.363Z,27.17
2019-02-27T19:51:54.895Z,30.90
2019-02-27T19:54:29.368Z,29.87
2019-02-27T19:57:01.541Z,32.13
2019-02-27T19:59:35.710Z,27.73
2019-02-27T20:02:09.079Z,26.67
2019-02-27T20:04:43.680Z,27.40
2019-02-27T20:07:22.223Z,25.67
2019-02-27T20:09:55.750Z,28.00
2019-02-27T20:12:37.335Z,23.23
2019-02-27T20:15:12.337Z,24.07
2019-02-27T20:17:43.063Z,24.23
2019-02-27T20:20:14.308Z,23.93
2019-02-27T20:22:45.383Z,37.80
2019-02-27T20:25:17.879Z,23.70
2019-02-27T20:27:48.319Z,27.77
2019-02-27T20:30:19.508Z,22.73
2019-02-27T20:32:50.107Z,25.40
2019-02-27T20:35:21.555Z,23.53
2019-02-27T20:37:52.432Z,20.53
2019-02-27T20:40:23.128Z,23.73
2019-02-27T20:42:55.083Z,22.87
2019-02-27T20:45:26.809Z,23.50
2019-02-27T20:48:01.457Z,24.57
2019-02-27T20:50:35.286Z,26.27
2019-02-27T20:53:05.807Z,20.47
2019-02-27T20:55:36.462Z,20.27
2019-02-27T20:58:07.038Z,20.10
2019-02-27T21:00:37.860Z,20.37
2019-02-27T21:03:08.435Z,19.97
2019-02-27T21:05:40.987Z,19.70
2019-02-27T21:08:11.443Z,18.57
2019-02-27T21:10:41.955Z,20.57
2019-02-27T21:13:15.992Z,17.87
2019-02-27T21:15:44.597Z,17.87
2019-02-27T21:18:15.267Z,18.33
2019-02-27T21:20:46.268Z,18.23
2019-02-27T21:23:17.277Z,18.03
2019-02-27T21:25:49.336Z,19.77
2019-02-27T21:28:21.274Z,17.17
2019-02-27T21:30:53.145Z,20.00
2019-02-27T21:33:23.907Z,18.17
2019-02-27T21:35:54.414Z,18.67
2019-02-27T21:42:19.609Z,18.37
2019-02-27T21:44:50.279Z,18.77
2019-02-27T21:47:20.731Z,14.67
2019-02-27T21:49:51.180Z,15.00
2019-02-27T21:52:22.509Z,14.30
2019-02-27T21:54:53.114Z,16.50
2019-02-27T21:57:26.448Z,18.73
2019-02-27T21:59:56.887Z,17.57
2019-02-27T22:02:30.119Z,14.40
2019-02-27T22:04:59.725Z,15.93
2019-02-27T22:07:33.260Z,15.70
2019-02-27T22:10:02.422Z,25.10
2019-02-27T22:12:35.249Z,22.40
2019-02-27T22:15:07.768Z,16.03
2019-02-27T22:17:39.872Z,16.60
2019-02-27T22:20:13.284Z,17.07
2019-02-27T22:22:43.808Z,16.80
2019-02-27T22:25:15.957Z,21.50
2019-02-27T22:27:46.718Z,16.77
2019-02-27T22:30:17.599Z,16.47
2019-02-27T22:32:50.332Z,15.67
2019-02-27T22:35:20.875Z,19.80
2019-02-27T22:37:52.673Z,14.57
2019-02-27T22:40:23.687Z,16.10
2019-02-27T22:42:56.228Z,17.67
2019-02-27T22:45:26.784Z,16.73
2019-02-27T22:47:57.641Z,15.40
2019-02-27T22:50:28.303Z,14.77
2019-02-27T22:53:01.941Z,16.13
2019-02-27T22:55:36.304Z,17.43
2019-02-27T22:58:09.077Z,17.63
2019-02-27T23:01:14.875Z,15.33
2019-02-27T23:04:05.880Z,20.60
2019-02-27T23:06:36.480Z,15.90
2019-02-27T23:09:11.404Z,18.53
2019-02-27T23:11:43.732Z,20.13
2019-02-27T23:14:14.215Z,15.50
2019-02-27T23:16:46.840Z,14.63
2019-02-27T23:19:18.774Z,19.53
2019-02-27T23:21:49.315Z,13.83
2019-02-27T23:24:25.039Z,15.30
2019-02-27T23:26:55.586Z,13.17
2019-02-27T23:29:26.197Z,16.07
2019-02-27T23:31:56.632Z,16.37
2019-02-27T23:34:27.363Z,14.20
2019-02-27T23:37:00.559Z,17.47
2019-02-27T23:39:31.044Z,13.40
2019-02-27T23:42:07.178Z,15.93
2019-02-27T23:44:40.924Z,15.00
2019-02-27T23:47:11.404Z,17.70
2019-02-27T23:49:46.167Z,19.27
2019-02-27T23:52:19.335Z,17.30
2019-02-27T23:54:53.119Z,14.57
2019-02-27T23:57:24.508Z,14.13
2019-02-27T23:59:58.215Z,15.77
